Terminal Aerodrome Forecast
Issued by NWS

Home | Current Version | Previous Version | Text Only | Print | Product List | Glossary Off
Versions: 1 2 3 4 5 6 7 8 9 10 11 12 13 14 15 16 17 18

000
FTUS43 KGRB 211127
TAFMTW
TAF
KMTW 211127Z 2112/2212 00000KT 3SM BR BKN130
      TEMPO 2112/2113 1SM BR
     FM211400 21004KT P6SM VCTS BKN090CB
      TEMPO 2114/2118 5SM -SHRA BKN050
     FM211900 21006KT P6SM BKN090
     FM220200 19004KT P6SM -SHRA VCTS OVC050CB
     FM220500 23005KT 4SM SHRA VCTS OVC025CB
     FM221000 27006KT P6SM OVC015
     FM221100 30007KT P6SM BKN015=

USA.gov is the U.S. government's official web portal to all federal, state and local government web resources and services.